Time;durP1;ratioP1;P1;durP2;ratioP2;P2;SDS_P1;SDS_P2;PMS_P1;PMS_P2;Temp;Humidity;BMP_temperature;BMP_pressure;BME280_temperature;BME280_humidity;BME280_pressure;Samples;Min_cycle;Max_cycle;Signal;HPM_P1;HPM_P2
2022/06/29 11:44:27;;;;;;;0.00;0.00;;;;;;;;;;5106435;27;20061;-60
2022/06/29 11:46:54;;;;;;;0.00;0.00;;;;;;;;;;5104119;28;20060;-61
2022/06/29 11:49:42;;;;;;;0.00;0.00;;;;;;;;;;5106623;28;20052;-60
2022/06/29 11:52:12;;;;;;;0.00;0.00;;;;;;;;;;5097594;27;20049;-62
2022/06/29 11:54:46;;;;;;;0.00;0.00;;;;;;;;;;5102977;28;20056;-60
2022/06/29 11:57:15;;;;;;;0.00;0.00;;;;;;;;;;5097442;27;20052;-57
2022/06/29 11:59:44;;;;;;;0.00;0.00;;;;;;;;;;5091967;28;20532;-59
2022/06/29 12:02:11;;;;;;;0.00;0.00;;;;;;;;;;5106443;27;20045;-60
2022/06/29 12:04:38;;;;;;;0.00;0.00;;;;;;;;;;5089591;27;20099;-59
2022/06/29 12:07:06;;;;;;;0.00;0.00;;;;;;;;;;5085492;28;20057;-59
2022/06/29 12:09:33;;;;;;;0.10;0.10;;;;;;;;;;5085485;28;20087;-60
2022/06/29 12:11:59;;;;;;;0.00;0.00;;;;;;;;;;5085745;28;20057;-59
2022/06/29 12:14:26;;;;;;;0.10;0.10;;;;;;;;;;5097300;27;20097;-59
2022/06/29 12:16:52;;;;;;;0.00;0.00;;;;;;;;;;5105363;28;20518;-57
2022/06/29 12:19:19;;;;;;;0.10;0.10;;;;;;;;;;5105184;28;20144;-58
2022/06/29 12:21:45;;;;;;;0.00;0.00;;;;;;;;;;5105777;28;20564;-60
2022/06/29 12:24:11;;;;;;;0.00;0.00;;;;;;;;;;5093281;27;20053;-60
2022/06/29 12:26:38;;;;;;;0.03;0.03;;;;;;;;;;5102480;28;20103;-59
2022/06/29 12:29:04;;;;;;;0.08;0.08;;;;;;;;;;5105797;28;20052;-59
2022/06/29 12:31:31;;;;;;;0.00;0.00;;;;;;;;;;5106002;28;20122;-60
2022/06/29 12:33:57;;;;;;;0.10;0.10;;;;;;;;;;5087806;28;20064;-60
2022/06/29 12:36:44;;;;;;;0.00;0.00;;;;;;;;;;5085372;28;20052;-60
2022/06/29 12:39:11;;;;;;;0.00;0.00;;;;;;;;;;5085303;28;20061;-60
2022/06/29 12:41:37;;;;;;;0.00;0.00;;;;;;;;;;5089228;27;20111;-62
2022/06/29 12:44:04;;;;;;;0.10;0.10;;;;;;;;;;5096681;28;20079;-58
2022/06/29 12:46:31;;;;;;;0.10;0.10;;;;;;;;;;5105432;28;20056;-59
2022/06/29 12:48:58;;;;;;;0.00;0.00;;;;;;;;;;5105375;28;20052;-57
2022/06/29 12:51:25;;;;;;;0.00;0.00;;;;;;;;;;5098762;28;20099;-58
2022/06/29 12:53:51;;;;;;;0.00;0.00;;;;;;;;;;5090731;28;20059;-61
2022/06/29 12:56:18;;;;;;;0.20;0.20;;;;;;;;;;5086517;28;20106;-61
2022/06/29 12:58:50;;;;;;;0.00;0.00;;;;;;;;;;5084114;28;20064;-61
2022/06/29 13:01:17;;;;;;;0.05;0.03;;;;;;;;;;5091031;28;20082;-62
2022/06/29 13:03:45;;;;;;;0.08;0.08;;;;;;;;;;5072106;28;20045;-61
2022/06/29 13:06:11;;;;;;;0.10;0.10;;;;;;;;;;5070454;28;20239;-63
2022/06/29 13:08:38;;;;;;;0.00;0.00;;;;;;;;;;5072091;28;20471;-63
2022/06/29 13:11:05;;;;;;;0.00;0.00;;;;;;;;;;5072113;28;20227;-63
2022/06/29 13:13:31;;;;;;;0.00;0.00;;;;;;;;;;5090712;28;20053;-63
2022/06/29 13:15:58;;;;;;;0.00;0.00;;;;;;;;;;5077589;28;20111;-63
2022/06/29 13:18:24;;;;;;;0.00;0.00;;;;;;;;;;5091974;28;20143;-64
2022/06/29 13:20:50;;;;;;;0.00;0.00;;;;;;;;;;5091499;28;20102;-63
2022/06/29 13:23:17;;;;;;;0.08;0.08;;;;;;;;;;5091566;28;20048;-63
2022/06/29 13:25:44;;;;;;;0.10;0.10;;;;;;;;;;5076441;28;20507;-61
2022/06/29 13:28:11;;;;;;;0.00;0.00;;;;;;;;;;5070929;28;20040;-60
2022/06/29 13:30:38;;;;;;;0.00;0.00;;;;;;;;;;5071303;28;20092;-61
2022/06/29 13:33:04;;;;;;;0.00;0.00;;;;;;;;;;5071632;28;20565;-61
2022/06/29 13:35:31;;;;;;;0.25;0.20;;;;;;;;;;5074329;28;20661;-60
2022/06/29 13:37:58;;;;;;;0.15;0.10;;;;;;;;;;5084938;28;20114;-61
2022/06/29 13:40:25;;;;;;;0.00;0.00;;;;;;;;;;5090834;28;20053;-61
2022/06/29 13:42:51;;;;;;;0.00;0.00;;;;;;;;;;5090955;28;20107;-61
2022/06/29 13:45:31;;;;;;;0.10;0.10;;;;;;;;;;5086252;28;20067;-61
2022/06/29 13:47:57;;;;;;;0.00;0.00;;;;;;;;;;5074684;28;20112;-60
2022/06/29 13:50:23;;;;;;;0.10;0.10;;;;;;;;;;5072931;28;20085;-61
2022/06/29 13:52:50;;;;;;;0.10;0.10;;;;;;;;;;5091040;28;20052;-61
2022/06/29 13:55:16;;;;;;;0.00;0.00;;;;;;;;;;5086851;28;20102;-61
2022/06/29 13:57:43;;;;;;;0.10;0.10;;;;;;;;;;5088709;28;20052;-61
2022/06/29 14:00:11;;;;;;;0.10;0.10;;;;;;;;;;5090824;28;20079;-61
2022/06/29 14:02:39;;;;;;;0.03;0.03;;;;;;;;;;5090331;28;20478;-61
2022/06/29 14:05:06;;;;;;;0.13;0.13;;;;;;;;;;5089490;28;20067;-61
2022/06/29 14:07:33;;;;;;;0.22;0.22;;;;;;;;;;5089618;27;20053;-62
2022/06/29 14:10:19;;;;;;;0.10;0.10;;;;;;;;;;5074118;28;20213;-60
2022/06/29 14:12:46;;;;;;;0.20;0.20;;;;;;;;;;5090905;28;20395;-60
2022/06/29 14:15:13;;;;;;;;;;;;;;;;;;5078690;28;20106;-60
2022/06/29 14:17:39;;;;;;;0.10;0.10;;;;;;;;;;5075518;28;45910;-61
2022/06/29 14:20:06;;;;;;;0.25;0.20;;;;;;;;;;5087047;28;20052;-61
2022/06/29 14:22:33;;;;;;;0.10;0.10;;;;;;;;;;5078251;28;20103;-60
2022/06/29 14:24:59;;;;;;;0.10;0.10;;;;;;;;;;5078255;28;20049;-61
2022/06/29 14:27:26;;;;;;;0.00;0.00;;;;;;;;;;5083543;28;20053;-61
2022/06/29 14:29:52;;;;;;;0.00;0.00;;;;;;;;;;5070525;28;20049;-61
2022/06/29 14:32:19;;;;;;;0.10;0.10;;;;;;;;;;5071958;28;20109;-61
2022/06/29 14:34:53;;;;;;;0.22;0.22;;;;;;;;;;5087083;28;20052;-61
2022/06/29 14:37:20;;;;;;;0.00;0.00;;;;;;;;;;5078989;28;20057;-62
2022/06/29 14:39:47;;;;;;;0.00;0.00;;;;;;;;;;5073480;28;20540;-62
2022/06/29 14:42:13;;;;;;;0.10;0.10;;;;;;;;;;5074208;28;20742;-63
2022/06/29 14:44:39;;;;;;;0.05;0.05;;;;;;;;;;5077903;28;20057;-61
2022/06/29 14:47:07;;;;;;;0.15;0.10;;;;;;;;;;5069389;28;20053;-61
2022/06/29 14:49:33;;;;;;;;;;;;;;;;;;5070121;28;20104;-61
2022/06/29 14:51:59;;;;;;;0.07;0.07;;;;;;;;;;5068667;28;46194;-61
2022/06/29 14:54:26;;;;;;;0.05;0.05;;;;;;;;;;5069259;28;20112;-61
2022/06/29 14:56:52;;;;;;;0.00;0.00;;;;;;;;;;5068993;28;20049;-61
2022/06/29 14:59:36;;;;;;;0.10;0.10;;;;;;;;;;5068658;28;20054;-61
2022/06/29 15:02:02;;;;;;;0.00;0.00;;;;;;;;;;5086054;28;20056;-61
2022/06/29 15:04:29;;;;;;;0.10;0.10;;;;;;;;;;5089615;28;20450;-61
2022/06/29 15:06:55;;;;;;;0.10;0.10;;;;;;;;;;5089243;28;20048;-61
2022/06/29 15:09:22;;;;;;;0.10;0.10;;;;;;;;;;5089659;28;20447;-61
2022/06/29 15:11:50;;;;;;;0.10;0.10;;;;;;;;;;5088642;28;20079;-61
2022/06/29 15:14:16;;;;;;;0.00;0.00;;;;;;;;;;5088497;28;20063;-61
2022/06/29 15:16:43;;;;;;;0.00;0.00;;;;;;;;;;5089341;28;20485;-61
2022/06/29 15:19:09;;;;;;;0.00;0.00;;;;;;;;;;5075538;28;20063;-62
2022/06/29 15:21:36;;;;;;;0.23;0.23;;;;;;;;;;5088888;28;20053;-61
2022/06/29 15:24:02;;;;;;;0.13;0.13;;;;;;;;;;5088475;28;20518;-64
2022/06/29 15:26:34;;;;;;;0.20;0.20;;;;;;;;;;5082273;28;20052;-64
2022/06/29 15:29:00;;;;;;;0.10;0.10;;;;;;;;;;5069579;28;20111;-64
2022/06/29 15:31:31;;;;;;;0.00;0.00;;;;;;;;;;5069539;28;20577;-64
2022/06/29 15:39:29;;;;;;;0.05;0.05;;;;;;;;;;5077129;28;20061;-65
2022/06/29 15:41:55;;;;;;;0.00;0.00;;;;;;;;;;5085021;28;20044;-65
2022/06/29 15:44:21;;;;;;;0.20;0.10;;;;;;;;;;5089177;28;20090;-60
2022/06/29 15:46:48;;;;;;;0.10;0.10;;;;;;;;;;5080561;28;20132;-61
2022/06/29 15:49:17;;;;;;;0.00;0.00;;;;;;;;;;5088069;28;20057;-62
2022/06/29 15:51:44;;;;;;;0.00;0.00;;;;;;;;;;5085808;28;20056;-60
2022/06/29 15:56:55;;;;;;;0.10;0.10;;;;;;;;;;5085591;28;20104;-63
2022/06/29 15:59:22;;;;;;;0.00;0.00;;;;;;;;;;5086974;28;20094;-63
2022/06/29 16:01:49;;;;;;;0.45;0.30;;;;;;;;;;5088019;28;20136;-62
2022/06/29 16:04:15;;;;;;;0.00;0.00;;;;;;;;;;5069739;28;20495;-63
2022/06/29 16:06:42;;;;;;;0.10;0.10;;;;;;;;;;5068661;28;20103;-63
2022/06/29 16:09:08;;;;;;;0.10;0.10;;;;;;;;;;5068404;28;20915;-63
2022/06/29 16:14:20;;;;;;;0.10;0.10;;;;;;;;;;5079704;28;20056;-63
2022/06/29 16:16:46;;;;;;;0.00;0.00;;;;;;;;;;5089786;28;20894;-63
2022/06/29 16:19:14;;;;;;;0.00;0.00;;;;;;;;;;5083330;28;20053;-63
2022/06/29 16:22:00;;;;;;;0.00;0.00;;;;;;;;;;5068629;28;20053;-63
2022/06/29 16:24:27;;;;;;;0.10;0.10;;;;;;;;;;5070766;28;20514;-62
2022/06/29 16:26:54;;;;;;;0.00;0.00;;;;;;;;;;5071970;28;20106;-62
2022/06/29 16:29:20;;;;;;;0.00;0.00;;;;;;;;;;5089881;28;20057;-62
2022/06/29 16:31:47;;;;;;;0.00;0.00;;;;;;;;;;5092604;28;20059;-62
2022/06/29 16:34:13;;;;;;;0.00;0.00;;;;;;;;;;5086992;28;20057;-62
2022/06/29 16:36:40;;;;;;;0.00;0.00;;;;;;;;;;5072011;28;20052;-62
2022/06/29 16:39:06;;;;;;;0.10;0.10;;;;;;;;;;5071542;28;20596;-62
2022/06/29 16:41:33;;;;;;;0.00;0.00;;;;;;;;;;5072170;28;20138;-62
2022/06/29 16:43:59;;;;;;;0.00;0.00;;;;;;;;;;5084370;28;20061;-62
2022/06/29 16:46:26;;;;;;;0.10;0.10;;;;;;;;;;5090296;28;20060;-61
2022/06/29 16:48:52;;;;;;;0.15;0.15;;;;;;;;;;5071806;28;20056;-62
2022/06/29 16:51:19;;;;;;;0.03;0.03;;;;;;;;;;5076550;28;20592;-63
2022/06/29 16:53:45;;;;;;;0.00;0.00;;;;;;;;;;5082654;28;20049;-60
2022/06/29 16:56:11;;;;;;;0.00;0.00;;;;;;;;;;5091689;28;20083;-68
2022/06/29 16:58:38;;;;;;;0.00;0.00;;;;;;;;;;5070732;28;20581;-64
2022/06/29 17:01:04;;;;;;;0.00;0.00;;;;;;;;;;5086512;28;20556;-62
2022/06/29 17:03:30;;;;;;;0.00;0.00;;;;;;;;;;5085977;28;20053;-65
2022/06/29 17:05:57;;;;;;;0.10;0.10;;;;;;;;;;5091708;28;20376;-65
2022/06/29 17:08:23;;;;;;;0.08;0.08;;;;;;;;;;5085075;28;20053;-65
2022/06/29 17:10:50;;;;;;;0.00;0.00;;;;;;;;;;5089335;28;20080;-64
2022/06/29 17:13:16;;;;;;;0.00;0.00;;;;;;;;;;5076819;28;20099;-63
2022/06/29 17:15:43;;;;;;;0.00;0.00;;;;;;;;;;5084744;28;20053;-64
2022/06/29 17:18:09;;;;;;;0.15;0.05;;;;;;;;;;5074648;28;20060;-64
2022/06/29 17:20:35;;;;;;;0.10;0.10;;;;;;;;;;5070894;28;20061;-63
2022/06/29 17:23:03;;;;;;;0.00;0.00;;;;;;;;;;5080499;28;20057;-64
2022/06/29 17:25:30;;;;;;;0.00;0.00;;;;;;;;;;5091377;28;20521;-64
2022/06/29 17:27:57;;;;;;;0.00;0.00;;;;;;;;;;5089450;28;20106;-64
2022/06/29 17:30:23;;;;;;;0.03;0.03;;;;;;;;;;5089502;28;20096;-62
2022/06/29 17:32:50;;;;;;;0.10;0.10;;;;;;;;;;5087471;28;20607;-64
2022/06/29 17:35:16;;;;;;;0.00;0.00;;;;;;;;;;5091254;28;20045;-63
2022/06/29 17:37:43;;;;;;;0.00;0.00;;;;;;;;;;5079573;28;20477;-64
2022/06/29 17:40:09;;;;;;;0.05;0.05;;;;;;;;;;5070580;28;20061;-64
2022/06/29 17:42:36;;;;;;;0.00;0.00;;;;;;;;;;5075127;28;20106;-64
2022/06/29 17:45:03;;;;;;;2.03;0.15;;;;;;;;;;5089858;28;20053;-64
2022/06/29 17:47:30;;;;;;;0.10;0.10;;;;;;;;;;5091255;28;20101;-64
2022/06/29 17:49:58;;;;;;;0.00;0.00;;;;;;;;;;5078440;28;20064;-64
2022/06/29 17:52:25;;;;;;;0.00;0.00;;;;;;;;;;5083108;28;20554;-65
2022/06/29 17:54:51;;;;;;;0.00;0.00;;;;;;;;;;5071051;28;20057;-64
2022/06/29 17:57:17;;;;;;;0.00;0.00;;;;;;;;;;5070101;28;20057;-64
2022/06/29 17:59:44;;;;;;;0.10;0.10;;;;;;;;;;5075217;28;20103;-63
2022/06/29 18:02:10;;;;;;;0.00;0.00;;;;;;;;;;5081463;28;20080;-64
2022/06/29 18:04:38;;;;;;;0.30;0.28;;;;;;;;;;5071482;28;20162;-65
2022/06/29 18:07:05;;;;;;;;;;;;;;;;;;5071057;28;20059;-62
2022/06/29 18:09:31;;;;;;;0.20;0.10;;;;;;;;;;5073250;28;45722;-60
2022/06/29 18:11:58;;;;;;;0.32;0.20;;;;;;;;;;5084498;28;20088;-63
2022/06/29 18:14:24;;;;;;;0.52;0.43;;;;;;;;;;5078848;28;20498;-63
2022/06/29 18:16:50;;;;;;;0.00;0.00;;;;;;;;;;5083553;28;20052;-64
2022/06/29 18:19:17;;;;;;;0.00;0.00;;;;;;;;;;5075824;28;20146;-62
2022/06/29 18:21:44;;;;;;;0.20;0.20;;;;;;;;;;5082222;28;20618;-64
2022/06/29 18:24:10;;;;;;;0.00;0.00;;;;;;;;;;5078273;28;20045;-62
2022/06/29 18:26:37;;;;;;;0.10;0.10;;;;;;;;;;5079837;28;20568;-61
2022/06/29 18:29:03;;;;;;;0.10;0.10;;;;;;;;;;5085901;28;20106;-59
2022/06/29 18:31:31;;;;;;;0.00;0.00;;;;;;;;;;5080170;28;20098;-61
2022/06/29 18:33:59;;;;;;;0.20;0.10;;;;;;;;;;5078374;28;20107;-60
2022/06/29 18:36:27;;;;;;;0.10;0.10;;;;;;;;;;5077099;28;20061;-61
2022/06/29 18:38:59;;;;;;;0.00;0.00;;;;;;;;;;5095861;28;20036;-60
2022/06/29 18:41:25;;;;;;;0.00;0.00;;;;;;;;;;5095930;28;20048;-61
2022/06/29 18:43:52;;;;;;;0.20;0.20;;;;;;;;;;5092957;27;20052;-61
2022/06/29 18:46:18;;;;;;;0.10;0.10;;;;;;;;;;5105561;28;20513;-61
2022/06/29 18:48:44;;;;;;;0.00;0.00;;;;;;;;;;5085431;27;20060;-60
2022/06/29 18:51:11;;;;;;;0.00;0.00;;;;;;;;;;5098884;27;20083;-60
2022/06/29 18:53:37;;;;;;;0.10;0.10;;;;;;;;;;5088613;28;20564;-60
2022/06/29 18:56:04;;;;;;;0.00;0.00;;;;;;;;;;5090767;28;20097;-60
2022/06/29 18:58:30;;;;;;;0.00;0.00;;;;;;;;;;5095166;28;20047;-61
2022/06/29 19:00:57;;;;;;;0.10;0.10;;;;;;;;;;5100508;27;20060;-60
2022/06/29 19:03:23;;;;;;;1.07;0.83;;;;;;;;;;5091595;28;20125;-60
2022/06/29 19:05:54;;;;;;;0.00;0.00;;;;;;;;;;5085764;28;20049;-59
2022/06/29 19:08:20;;;;;;;0.00;0.00;;;;;;;;;;5085618;28;20110;-60
2022/06/29 19:10:47;;;;;;;0.10;0.10;;;;;;;;;;5100075;28;20056;-59
2022/06/29 19:13:14;;;;;;;0.00;0.00;;;;;;;;;;5089474;28;20568;-60
2022/06/29 19:15:40;;;;;;;0.00;0.00;;;;;;;;;;5100669;28;20117;-60
2022/06/29 19:18:08;;;;;;;0.00;0.00;;;;;;;;;;5102649;27;20127;-60
2022/06/29 19:20:35;;;;;;;0.22;0.20;;;;;;;;;;5095011;27;20053;-61
2022/06/29 19:23:01;;;;;;;0.20;0.20;;;;;;;;;;5102854;28;20053;-60
2022/06/29 19:25:28;;;;;;;0.00;0.00;;;;;;;;;;5106396;28;20216;-59
2022/06/29 19:27:54;;;;;;;0.00;0.00;;;;;;;;;;5084393;28;20055;-59
2022/06/29 19:30:20;;;;;;;0.10;0.10;;;;;;;;;;5108256;27;20056;-59
2022/06/29 19:32:47;;;;;;;0.22;0.22;;;;;;;;;;5108272;27;20101;-59
2022/06/29 19:35:13;;;;;;;0.00;0.00;;;;;;;;;;5092812;27;20103;-59
2022/06/29 19:37:40;;;;;;;0.00;0.00;;;;;;;;;;5076365;28;20102;-59
2022/06/29 19:40:07;;;;;;;0.00;0.00;;;;;;;;;;5102304;27;20048;-59
2022/06/29 19:42:34;;;;;;;0.00;0.00;;;;;;;;;;5100648;28;20048;-59
2022/06/29 19:45:00;;;;;;;0.00;0.00;;;;;;;;;;5103823;27;20604;-59
2022/06/29 19:47:27;;;;;;;0.00;0.00;;;;;;;;;;5098636;28;20134;-59
2022/06/29 19:49:54;;;;;;;0.03;0.03;;;;;;;;;;5073017;28;20528;-59
2022/06/29 19:52:21;;;;;;;;;;;;;;;;;;5069591;28;20057;-59
2022/06/29 19:54:47;;;;;;;0.22;0.22;;;;;;;;;;5067481;28;44618;-59
2022/06/29 19:57:14;;;;;;;0.65;0.65;;;;;;;;;;5065785;28;20057;-59
2022/06/29 19:59:40;;;;;;;0.03;0.03;;;;;;;;;;5068650;28;20084;-58
2022/06/29 20:02:07;;;;;;;0.00;0.00;;;;;;;;;;5070324;28;20096;-58
2022/06/29 20:04:33;;;;;;;0.00;0.00;;;;;;;;;;5073212;28;20220;-59
2022/06/29 20:07:00;;;;;;;0.00;0.00;;;;;;;;;;5073722;28;20052;-58
2022/06/29 20:09:29;;;;;;;0.00;0.00;;;;;;;;;;5075945;28;20092;-59
2022/06/29 20:11:55;;;;;;;0.00;0.00;;;;;;;;;;5071862;28;20107;-58
2022/06/29 20:14:22;;;;;;;0.00;0.00;;;;;;;;;;5073383;28;20080;-58
2022/06/29 20:16:49;;;;;;;0.30;0.30;;;;;;;;;;5070874;28;20046;-58
2022/06/29 20:19:15;;;;;;;0.00;0.00;;;;;;;;;;5086130;28;20537;-59
2022/06/29 20:21:41;;;;;;;0.00;0.00;;;;;;;;;;5072540;28;20057;-59
2022/06/29 20:24:08;;;;;;;0.00;0.00;;;;;;;;;;5071368;28;20108;-58
2022/06/29 20:26:34;;;;;;;0.00;0.00;;;;;;;;;;5071144;28;20895;-59
2022/06/29 20:29:01;;;;;;;0.00;0.00;;;;;;;;;;5070807;28;20053;-59
2022/06/29 20:31:27;;;;;;;0.00;0.00;;;;;;;;;;5075382;28;20053;-59
2022/06/29 20:33:54;;;;;;;0.00;0.00;;;;;;;;;;5073228;28;20550;-59
2022/06/29 20:36:20;;;;;;;0.10;0.10;;;;;;;;;;5074127;28;20118;-61
2022/06/29 20:38:47;;;;;;;0.10;0.10;;;;;;;;;;5071665;28;20073;-59
2022/06/29 20:41:13;;;;;;;0.00;0.00;;;;;;;;;;5084887;28;20060;-59
2022/06/29 20:46:24;;;;;;;0.00;0.00;;;;;;;;;;5071765;28;20084;-59
2022/06/29 20:48:51;;;;;;;0.00;0.00;;;;;;;;;;5075544;27;20083;-59
2022/06/29 20:51:23;;;;;;;0.10;0.10;;;;;;;;;;5071279;28;20459;-59
2022/06/29 20:53:49;;;;;;;0.10;0.10;;;;;;;;;;5071003;28;20056;-59
2022/06/29 20:56:15;;;;;;;0.00;0.00;;;;;;;;;;5070755;28;20092;-59
2022/06/29 20:58:42;;;;;;;0.15;0.15;;;;;;;;;;5071006;28;20215;-60
2022/06/29 21:01:08;;;;;;;0.00;0.00;;;;;;;;;;5079704;28;20105;-59
2022/06/29 21:03:35;;;;;;;0.00;0.00;;;;;;;;;;5071980;28;20049;-60
2022/06/29 21:06:01;;;;;;;0.08;0.08;;;;;;;;;;5091706;28;20147;-59
2022/06/29 21:08:28;;;;;;;0.00;0.00;;;;;;;;;;5091597;28;20120;-59
2022/06/29 21:10:56;;;;;;;0.10;0.10;;;;;;;;;;5091407;28;20049;-59
2022/06/29 21:13:23;;;;;;;0.17;0.17;;;;;;;;;;5088175;28;20491;-60
2022/06/29 21:15:51;;;;;;;0.00;0.00;;;;;;;;;;5091716;28;20499;-59
2022/06/29 21:18:20;;;;;;;0.00;0.00;;;;;;;;;;5084378;28;20053;-59
2022/06/29 21:20:47;;;;;;;0.00;0.00;;;;;;;;;;5074088;28;20085;-59
2022/06/29 21:23:14;;;;;;;0.00;0.00;;;;;;;;;;5091195;28;20087;-60
2022/06/29 21:25:40;;;;;;;0.00;0.00;;;;;;;;;;5091694;28;20086;-59
2022/06/29 21:28:06;;;;;;;0.05;0.05;;;;;;;;;;5074635;28;20044;-59
2022/06/29 21:30:33;;;;;;;0.25;0.20;;;;;;;;;;5068938;28;20590;-60
2022/06/29 21:33:00;;;;;;;0.00;0.00;;;;;;;;;;5070643;28;20426;-59
2022/06/29 21:35:26;;;;;;;0.10;0.10;;;;;;;;;;5078818;28;20059;-59
2022/06/29 21:37:52;;;;;;;0.00;0.00;;;;;;;;;;5069920;28;20072;-59
2022/06/29 21:40:19;;;;;;;0.00;0.00;;;;;;;;;;5087273;28;20088;-60
2022/06/29 21:42:45;;;;;;;0.00;0.00;;;;;;;;;;5074598;28;20152;-61
2022/06/29 21:45:12;;;;;;;0.40;0.40;;;;;;;;;;5090477;28;20135;-60
2022/06/29 21:47:38;;;;;;;0.03;0.03;;;;;;;;;;5084006;28;20144;-61
2022/06/29 21:52:50;;;;;;;0.10;0.10;;;;;;;;;;5088953;28;20596;-60
2022/06/29 21:55:16;;;;;;;0.10;0.10;;;;;;;;;;5090251;28;20148;-61
2022/06/29 21:57:43;;;;;;;0.30;0.30;;;;;;;;;;5073300;28;20049;-61
2022/06/29 22:00:09;;;;;;;0.00;0.00;;;;;;;;;;5076549;28;20056;-60
2022/06/29 22:02:36;;;;;;;0.10;0.10;;;;;;;;;;5089604;28;20088;-60
2022/06/29 22:05:02;;;;;;;0.00;0.00;;;;;;;;;;5085369;28;20148;-61
2022/06/29 22:07:31;;;;;;;0.10;0.10;;;;;;;;;;5089748;28;20552;-60
2022/06/29 22:09:58;;;;;;;0.00;0.00;;;;;;;;;;5085248;28;20080;-60
2022/06/29 22:12:24;;;;;;;0.00;0.00;;;;;;;;;;5088469;27;20140;-60
2022/06/29 22:14:50;;;;;;;0.10;0.10;;;;;;;;;;5082813;28;20143;-61
2022/06/29 22:17:17;;;;;;;0.00;0.00;;;;;;;;;;5085645;28;20144;-61
2022/06/29 22:19:43;;;;;;;0.40;0.25;;;;;;;;;;5077092;28;20573;-61
2022/06/29 22:22:09;;;;;;;0.10;0.10;;;;;;;;;;5069642;28;20147;-60
2022/06/29 22:24:36;;;;;;;0.10;0.10;;;;;;;;;;5069395;28;20048;-60
2022/06/29 22:27:02;;;;;;;0.08;0.08;;;;;;;;;;5085468;28;20056;-60
2022/06/29 22:29:29;;;;;;;0.10;0.10;;;;;;;;;;5085633;28;20659;-60
2022/06/29 22:31:55;;;;;;;0.60;0.52;;;;;;;;;;5076984;28;20434;-60
2022/06/29 22:34:21;;;;;;;0.00;0.00;;;;;;;;;;5081628;28;20141;-60
2022/06/29 22:36:48;;;;;;;0.00;0.00;;;;;;;;;;5094494;28;20535;-61
2022/06/29 22:39:14;;;;;;;0.00;0.00;;;;;;;;;;5082051;28;20533;-60
2022/06/29 22:41:41;;;;;;;0.00;0.00;;;;;;;;;;5082329;28;20061;-60
2022/06/29 22:44:08;;;;;;;0.00;0.00;;;;;;;;;;5083041;28;20143;-60
2022/06/29 22:46:34;;;;;;;0.00;0.00;;;;;;;;;;5069506;28;20151;-61
2022/06/29 22:49:01;;;;;;;0.00;0.00;;;;;;;;;;5077769;28;20126;-61
2022/06/29 22:51:27;;;;;;;0.10;0.10;;;;;;;;;;5077911;28;20139;-60
2022/06/29 22:53:54;;;;;;;0.08;0.08;;;;;;;;;;5069982;28;20059;-60
2022/06/29 22:56:20;;;;;;;0.05;0.03;;;;;;;;;;5092412;28;20932;-61
2022/06/29 22:58:47;;;;;;;0.00;0.00;;;;;;;;;;5110493;27;20044;-60
2022/06/29 23:01:13;;;;;;;0.10;0.10;;;;;;;;;;5100987;27;20080;-61
2022/06/29 23:03:39;;;;;;;0.00;0.00;;;;;;;;;;5087788;28;20095;-60
2022/06/29 23:06:06;;;;;;;0.00;0.00;;;;;;;;;;5082274;28;20114;-61
2022/06/29 23:08:32;;;;;;;0.10;0.10;;;;;;;;;;5073226;28;20148;-60
2022/06/29 23:13:57;;;;;;;0.10;0.10;;;;;;;;;;5087041;28;20049;-60
2022/06/29 23:16:24;;;;;;;1.30;0.75;;;;;;;;;;5084793;28;20083;-60
2022/06/29 23:18:50;;;;;;;0.03;0.03;;;;;;;;;;5069913;28;20044;-61
2022/06/29 23:21:17;;;;;;;0.03;0.03;;;;;;;;;;5076446;28;20503;-61
2022/06/29 23:23:43;;;;;;;0.00;0.00;;;;;;;;;;5083823;28;20140;-60
2022/06/29 23:26:09;;;;;;;0.10;0.10;;;;;;;;;;5085936;28;20586;-61
2022/06/29 23:28:36;;;;;;;0.00;0.00;;;;;;;;;;5079457;28;20139;-60
2022/06/29 23:31:02;;;;;;;0.10;0.10;;;;;;;;;;5079903;28;20064;-60
2022/06/29 23:33:28;;;;;;;0.00;0.00;;;;;;;;;;5085725;28;20052;-60
2022/06/29 23:35:56;;;;;;;0.00;0.00;;;;;;;;;;5081268;28;20071;-61
2022/06/29 23:38:22;;;;;;;0.17;0.10;;;;;;;;;;5072837;28;20069;-61
2022/06/29 23:40:49;;;;;;;0.00;0.00;;;;;;;;;;5073503;28;20434;-61
2022/06/29 23:43:15;;;;;;;0.00;0.00;;;;;;;;;;5082576;28;20078;-61
2022/06/29 23:45:42;;;;;;;0.10;0.10;;;;;;;;;;5080786;28;20045;-60
2022/06/29 23:48:08;;;;;;;0.20;0.15;;;;;;;;;;5086300;28;20452;-60
2022/06/29 23:50:34;;;;;;;0.30;0.20;;;;;;;;;;5087327;28;20491;-60
2022/06/29 23:53:01;;;;;;;0.10;0.10;;;;;;;;;;5067144;28;20152;-60
2022/06/29 23:55:27;;;;;;;0.10;0.10;;;;;;;;;;5067649;28;20140;-61
2022/06/29 23:57:53;;;;;;;0.20;0.20;;;;;;;;;;5072173;28;20137;-60
